Time;durP1;ratioP1;P1;durP2;ratioP2;P2;SDS_P1;SDS_P2;PMS_P1;PMS_P2;Temp;Humidity;BMP_temperature;BMP_pressure;BME280_temperature;BME280_humidity;BME280_pressure;Samples;Min_cycle;Max_cycle;Signal;HPM_P1;HPM_P2
2021/11/28 00:02:13;;;;;;;;;;;;;;;21.14;36.21;100148.88;7282686;19;154028;-52
2021/11/28 00:04:40;;;;;;;;;;;;;;;21.11;36.72;100143.91;7281513;19;152427;-51
2021/11/28 00:14:53;;;;;;;;;;;;;;;21.05;36.82;100155.63;7288791;19;153138;-52
2021/11/28 00:17:21;;;;;;;;;;;;;;;21.01;36.58;100154.66;7290201;19;153245;-52
2021/11/28 00:19:48;;;;;;;;;;;;;;;20.99;37.02;100154.97;7289284;19;151846;-51
2021/11/28 00:22:15;;;;;;;;;;;;;;;20.96;37.26;100166.88;7296057;19;152591;-52
2021/11/28 00:24:41;;;;;;;;;;;;;;;20.95;37.44;100165.22;7290348;19;152039;-52
2021/11/28 00:27:08;;;;;;;;;;;;;;;20.92;37.40;100159.44;7289934;19;153602;-52
2021/11/28 00:29:39;;;;;;;;;;;;;;;20.91;37.38;100174.63;7286948;19;154230;-52
2021/11/28 00:32:06;;;;;;;;;;;;;;;20.89;37.46;100168.53;7289971;19;151876;-52
2021/11/28 00:34:32;;;;;;;;;;;;;;;20.79;37.83;100176.13;7289584;19;153367;-52
2021/11/28 00:36:59;;;;;;;;;;;;;;;20.81;37.93;100168.19;7288845;19;154077;-52
2021/11/28 00:39:26;;;;;;;;;;;;;;;20.78;37.93;100168.84;7290178;19;151800;-51
2021/11/28 00:41:52;;;;;;;;;;;;;;;20.75;37.99;100180.75;7289376;19;152021;-51
2021/11/28 00:44:28;;;;;;;;;;;;;;;20.73;38.27;100176.59;7296001;19;153478;-52
2021/11/28 00:46:55;;;;;;;;;;;;;;;20.63;38.17;100182.53;7290024;19;152563;-55
2021/11/28 00:49:23;;;;;;;;;;;;;;;20.57;38.29;100169.81;7287131;19;153279;-51
2021/11/28 00:51:55;;;;;;;;;;;;;;;20.53;38.09;100174.44;7287631;19;151624;-52
2021/11/28 00:54:23;;;;;;;;;;;;;;;20.46;38.23;100174.06;7289064;19;151642;-51
2021/11/28 00:56:50;;;;;;;;;;;;;;;20.41;38.06;100164.66;7288308;19;153947;-52
2021/11/28 00:59:16;;;;;;;;;;;;;;;20.36;38.36;100167.63;7288792;19;151803;-51
2021/11/28 01:01:43;;;;;;;;;;;;;;;20.32;38.60;100180.66;7289137;19;152369;-52
2021/11/28 01:04:11;;;;;;;;;;;;;;;20.27;38.33;100168.72;7286256;19;153349;-52
2021/11/28 01:06:38;;;;;;;;;;;;;;;20.26;38.75;100175.50;7296939;19;152306;-52
2021/11/28 01:09:08;;;;;;;;;;;;;;;20.22;38.34;100182.88;7287928;19;154010;-51
2021/11/28 01:11:35;;;;;;;;;;;;;;;20.19;38.56;100183.53;7286462;19;151890;-51
2021/11/28 01:14:02;;;;;;;;;;;;;;;20.17;38.77;100194.28;7288228;19;153089;-51
2021/11/28 01:16:33;;;;;;;;;;;;;;;20.13;38.82;100202.50;7286801;19;154029;-51
2021/11/28 01:19:00;;;;;;;;;;;;;;;20.09;38.78;100204.28;7288798;19;151967;-51
2021/11/28 01:21:27;;;;;;;;;;;;;;;20.08;38.84;100199.03;7287646;19;153516;-52
2021/11/28 01:23:54;;;;;;;;;;;;;;;20.04;39.08;100198.00;7283266;19;152998;-51
2021/11/28 01:26:21;;;;;;;;;;;;;;;20.01;38.94;100223.88;7287039;19;151782;-52
2021/11/28 01:28:49;;;;;;;;;;;;;;;19.96;39.18;100211.66;7295491;19;153717;-51
2021/11/28 01:31:16;;;;;;;;;;;;;;;19.93;39.20;100208.69;7283831;19;153044;-52
2021/11/28 01:33:43;;;;;;;;;;;;;;;19.92;39.46;100218.25;7288221;19;153404;-51
2021/11/28 01:36:10;;;;;;;;;;;;;;;19.87;39.43;100216.41;7286611;19;153256;-52
2021/11/28 01:38:36;;;;;;;;;;;;;;;19.84;39.22;100219.03;7288431;19;151516;-52
2021/11/28 01:41:03;;;;;;;;;;;;;;;19.83;39.27;100225.78;7283158;19;153597;-51
2021/11/28 01:43:30;;;;;;;;;;;;;;;19.78;39.22;100218.31;7286569;19;154053;-52
2021/11/28 01:45:57;;;;;;;;;;;;;;;19.76;39.47;100200.19;7288294;19;151667;-51
2021/11/28 01:48:24;;;;;;;;;;;;;;;19.73;39.70;100214.81;7287535;19;152980;-52
2021/11/28 01:50:51;;;;;;;;;;;;;;;19.70;39.36;100215.47;7291753;19;153461;-51
2021/11/28 01:53:20;;;;;;;;;;;;;;;19.67;39.68;100218.94;7287379;19;153332;-52
2021/11/28 01:55:47;;;;;;;;;;;;;;;19.64;39.63;100226.00;7286613;19;153978;-51
2021/11/28 01:58:15;;;;;;;;;;;;;;;19.61;39.46;100223.00;7288064;19;151631;-51
2021/11/28 02:00:46;;;;;;;;;;;;;;;19.56;39.80;100217.53;7287109;19;153567;-51
2021/11/28 02:03:15;;;;;;;;;;;;;;;19.56;39.50;100215.56;7283262;19;152877;-51
2021/11/28 02:05:45;;;;;;;;;;;;;;;19.52;39.97;100226.59;7284340;19;152464;-51
2021/11/28 02:08:11;;;;;;;;;;;;;;;19.51;39.77;100218.50;7286258;19;151999;-52
2021/11/28 02:10:38;;;;;;;;;;;;;;;19.48;40.03;100227.53;7292555;19;154080;-51
2021/11/28 02:13:05;;;;;;;;;;;;;;;19.44;40.13;100240.53;7285016;19;153298;-52
2021/11/28 02:15:32;;;;;;;;;;;;;;;19.42;39.80;100238.00;7285779;19;154170;-51
2021/11/28 02:17:59;;;;;;;;;;;;;;;19.41;40.23;100236.34;7287694;19;152098;-51
2021/11/28 02:20:27;;;;;;;;;;;;;;;19.40;39.96;100239.47;7286510;19;153297;-52
2021/11/28 02:22:55;;;;;;;;;;;;;;;19.37;40.06;100235.34;7283151;19;153322;-51
2021/11/28 02:25:24;;;;;;;;;;;;;;;19.32;40.40;100235.44;7284525;19;151586;-51
2021/11/28 02:27:52;;;;;;;;;;;;;;;19.28;40.25;100242.00;7287181;19;152644;-51
2021/11/28 02:30:21;;;;;;;;;;;;;;;19.25;40.47;100248.25;7280346;19;153241;-52
2021/11/28 02:32:48;;;;;;;;;;;;;;;19.25;40.16;100248.25;7292533;19;151948;-52
2021/11/28 02:35:16;;;;;;;;;;;;;;;19.22;40.43;100248.88;7280627;19;154454;-52
2021/11/28 02:37:43;;;;;;;;;;;;;;;19.20;40.24;100235.19;7285450;19;151991;-52
2021/11/28 02:40:11;;;;;;;;;;;;;;;19.16;40.41;100242.59;7284390;19;152656;-52
2021/11/28 02:42:38;;;;;;;;;;;;;;;19.15;40.36;100240.09;7283949;19;154148;-51
2021/11/28 02:45:06;;;;;;;;;;;;;;;19.12;40.79;100235.13;7285413;19;152255;-52
2021/11/28 02:47:33;;;;;;;;;;;;;;;19.08;40.82;100240.50;7285290;19;152644;-51
2021/11/28 02:50:00;;;;;;;;;;;;;;;19.06;40.83;100242.81;7284883;19;153309;-51
2021/11/28 02:52:26;;;;;;;;;;;;;;;19.03;40.96;100244.25;7281984;19;152026;-52
2021/11/28 02:54:53;;;;;;;;;;;;;;;19.01;40.59;100242.94;7291501;19;153217;-51
2021/11/28 02:57:20;;;;;;;;;;;;;;;18.98;40.60;100247.19;7284542;19;151793;-52
2021/11/28 02:59:46;;;;;;;;;;;;;;;18.96;40.92;100243.03;7284390;19;153291;-52
2021/11/28 03:02:13;;;;;;;;;;;;;;;18.93;40.79;100240.88;7281862;19;153917;-52
2021/11/28 03:04:40;;;;;;;;;;;;;;;18.90;41.07;100239.53;7281626;19;153084;-51
2021/11/28 03:07:07;;;;;;;;;;;;;;;18.87;40.93;100248.56;7282079;19;152609;-52
2021/11/28 03:09:34;;;;;;;;;;;;;;;18.85;41.10;100247.22;7283758;19;153204;-52
2021/11/28 03:12:01;;;;;;;;;;;;;;;18.83;40.91;100250.34;7282505;19;151757;-51
2021/11/28 03:14:27;;;;;;;;;;;;;;;18.82;41.16;100259.88;7284257;19;153778;-53
2021/11/28 03:16:54;;;;;;;;;;;;;;;18.77;41.01;100247.94;7291249;19;153692;-52
2021/11/28 03:19:21;;;;;;;;;;;;;;;18.77;41.05;100250.75;7283916;19;152375;-52
2021/11/28 03:21:49;;;;;;;;;;;;;;;18.72;41.25;100257.28;7282733;19;153245;-51
2021/11/28 03:24:16;;;;;;;;;;;;;;;18.71;41.34;100254.81;7283582;19;152230;-51
2021/11/28 03:26:43;;;;;;;;;;;;;;;18.67;41.11;100244.22;7284424;19;152592;-52
2021/11/28 03:29:10;;;;;;;;;;;;;;;18.64;41.37;100247.66;7283059;19;153958;-52
2021/11/28 03:31:38;;;;;;;;;;;;;;;18.61;41.26;100253.06;7282304;19;152243;-52
2021/11/28 03:34:06;;;;;;;;;;;;;;;18.60;41.32;100245.81;7284191;19;153729;-51
2021/11/28 03:36:34;;;;;;;;;;;;;;;18.58;41.49;100248.06;7282173;19;153333;-51
2021/11/28 03:39:01;;;;;;;;;;;;;;;18.57;41.02;100249.25;7289407;19;153553;-51
2021/11/28 03:41:28;;;;;;;;;;;;;;;18.55;41.21;100243.13;7282205;19;152159;-51
2021/11/28 03:43:56;;;;;;;;;;;;;;;18.51;41.32;100245.69;7289792;19;151950;-51
2021/11/28 03:46:24;;;;;;;;;;;;;;;18.51;41.46;100250.44;7289959;19;152745;-51
2021/11/28 03:48:50;;;;;;;;;;;;;;;18.48;41.45;100253.88;7286072;19;154148;-51
2021/11/28 03:51:17;;;;;;;;;;;;;;;18.43;41.79;100246.41;7289303;19;151776;-51
2021/11/28 03:53:44;;;;;;;;;;;;;;;18.40;41.58;100252.63;7290051;19;153316;-52
2021/11/28 03:56:11;;;;;;;;;;;;;;;18.42;41.66;100250.34;7288498;19;154293;-51
2021/11/28 03:58:38;;;;;;;;;;;;;;;18.40;41.18;100235.84;7289592;19;152291;-51
2021/11/28 04:01:07;;;;;;;;;;;;;;;18.36;41.52;100245.16;7295740;19;152580;-51
2021/11/28 04:03:34;;;;;;;;;;;;;;;18.34;41.70;100247.47;7288870;19;151813;-51
2021/11/28 04:06:02;;;;;;;;;;;;;;;18.29;41.43;100253.97;7286034;19;152604;-51
2021/11/28 04:08:30;;;;;;;;;;;;;;;18.31;41.90;100242.47;7286913;19;154110;-51
2021/11/28 04:10:56;;;;;;;;;;;;;;;18.25;41.92;100255.75;7289161;19;151955;-51
2021/11/28 04:13:24;;;;;;;;;;;;;;;18.24;41.85;100254.06;7290082;19;152772;-52
2021/11/28 04:15:51;;;;;;;;;;;;;;;18.23;41.65;100253.25;7283967;19;153741;-51
2021/11/28 04:18:18;;;;;;;;;;;;;;;18.19;41.86;100252.22;7289237;19;151647;-51
2021/11/28 04:20:45;;;;;;;;;;;;;;;18.18;41.90;100267.31;7295491;19;152086;-51
2021/11/28 04:23:12;;;;;;;;;;;;;;;18.16;41.62;100263.19;7287109;19;151670;-51
2021/11/28 04:25:39;;;;;;;;;;;;;;;18.15;42.09;100261.53;7288045;19;152129;-51
2021/11/28 04:28:06;;;;;;;;;;;;;;;18.14;41.74;100263.50;7287395;19;153896;-52
2021/11/28 04:30:33;;;;;;;;;;;;;;;18.11;41.87;100264.13;7287145;19;151510;-51
2021/11/28 04:33:00;;;;;;;;;;;;;;;18.08;42.03;100264.72;7286562;19;153216;-51
2021/11/28 04:35:27;;;;;;;;;;;;;;;18.06;42.18;100260.59;7286316;19;153937;-51
2021/11/28 04:37:54;;;;;;;;;;;;;;;18.03;42.14;100262.03;7288882;19;152095;-51
2021/11/28 04:40:21;;;;;;;;;;;;;;;18.04;42.12;100262.84;7287771;19;152968;-51
2021/11/28 04:42:48;;;;;;;;;;;;;;;18.01;41.80;100269.91;7295087;19;153973;-52
2021/11/28 04:45:15;;;;;;;;;;;;;;;17.95;41.94;100265.53;7288800;19;152835;-51
2021/11/28 04:47:42;;;;;;;;;;;;;;;17.94;42.02;100263.88;7287371;19;153969;-51
2021/11/28 04:50:09;;;;;;;;;;;;;;;17.91;42.02;100267.28;7288039;19;152065;-51
2021/11/28 04:52:36;;;;;;;;;;;;;;;17.91;42.01;100263.66;7285056;19;152153;-51
2021/11/28 04:55:04;;;;;;;;;;;;;;;17.89;41.99;100257.56;7287046;19;153376;-51
2021/11/28 04:57:31;;;;;;;;;;;;;;;17.88;42.04;100265.09;7288782;19;151923;-51
2021/11/28 04:59:58;;;;;;;;;;;;;;;17.86;42.17;100275.75;7287099;19;153399;-51
2021/11/28 05:02:25;;;;;;;;;;;;;;;17.82;42.19;100271.09;7283634;19;154410;-51
2021/11/28 05:04:53;;;;;;;;;;;;;;;17.82;42.00;100263.53;7295126;19;151857;-51
2021/11/28 05:07:24;;;;;;;;;;;;;;;17.81;42.37;100259.06;7285847;19;152996;-51
2021/11/28 05:09:51;;;;;;;;;;;;;;;17.80;42.11;100273.38;7287500;19;151754;-51
2021/11/28 05:12:17;;;;;;;;;;;;;;;17.77;42.49;100272.00;7286420;19;153346;-51
2021/11/28 05:14:44;;;;;;;;;;;;;;;17.74;42.12;100275.41;7287177;19;153352;-51
2021/11/28 05:17:11;;;;;;;;;;;;;;;17.69;42.46;100269.91;7287797;19;151898;-51
2021/11/28 05:19:37;;;;;;;;;;;;;;;17.71;42.50;100271.28;7287496;19;152469;-51
2021/11/28 05:22:04;;;;;;;;;;;;;;;17.70;42.59;100279.97;7285446;19;152599;-51
2021/11/28 05:24:31;;;;;;;;;;;;;;;17.65;42.64;100278.09;7287839;19;152474;-52
2021/11/28 05:26:58;;;;;;;;;;;;;;;17.65;42.64;100271.66;7293257;19;152541;-51
2021/11/28 05:29:24;;;;;;;;;;;;;;;17.65;42.79;100277.25;7287722;19;152111;-52
2021/11/28 05:31:51;;;;;;;;;;;;;;;17.65;42.40;100272.50;7286447;19;153262;-52
2021/11/28 05:34:18;;;;;;;;;;;;;;;17.62;42.80;100273.13;7286269;19;153340;-50
2021/11/28 05:36:45;;;;;;;;;;;;;;;17.61;42.73;100288.22;7287588;19;151772;-52
2021/11/28 05:39:11;;;;;;;;;;;;;;;17.70;42.75;100285.56;7286496;19;151761;-51
2021/11/28 05:41:38;;;;;;;;;;;;;;;17.67;42.79;100286.97;7285449;19;153245;-51
2021/11/28 05:44:05;;;;;;;;;;;;;;;17.66;42.64;100290.94;7285146;19;151933;-51
2021/11/28 05:46:32;;;;;;;;;;;;;;;17.60;42.91;100286.56;7283240;19;152654;-51
2021/11/28 05:48:59;;;;;;;;;;;;;;;17.58;42.91;100291.59;7293907;19;153439;-51
2021/11/28 05:51:26;;;;;;;;;;;;;;;17.58;42.81;100291.59;7286612;19;152750;-51
2021/11/28 05:53:52;;;;;;;;;;;;;;;17.57;42.37;100300.28;7285024;19;153634;-51
2021/11/28 05:56:19;;;;;;;;;;;;;;;17.53;42.73;100296.44;7286349;19;152219;-52
2021/11/28 05:58:46;;;;;;;;;;;;;;;17.53;43.10;100296.44;7286935;19;153183;-51
2021/11/28 06:01:12;;;;;;;;;;;;;;;17.57;42.99;100298.31;7285608;19;153389;-51
2021/11/28 06:03:39;;;;;;;;;;;;;;;17.62;42.74;100295.47;7285667;19;152093;-51
2021/11/28 06:06:06;;;;;;;;;;;;;;;17.67;42.93;100297.34;7281119;19;151705;-51
2021/11/28 06:08:34;;;;;;;;;;;;;;;17.73;42.84;100301.69;7285410;19;153879;-51
2021/11/28 06:11:01;;;;;;;;;;;;;;;17.75;43.20;100294.69;7289716;19;152540;-51
2021/11/28 06:13:27;;;;;;;;;;;;;;;17.79;43.36;100300.47;7282656;19;154257;-51
2021/11/28 06:15:54;;;;;;;;;;;;;;;17.86;43.66;100300.06;7286680;19;151791;-50
2021/11/28 06:18:21;;;;;;;;;;;;;;;17.89;43.70;100302.28;7286017;19;153058;-51
2021/11/28 06:20:48;;;;;;;;;;;;;;;17.95;43.79;100306.63;7284385;19;153969;-51
2021/11/28 06:23:15;;;;;;;;;;;;;;;18.01;44.02;100305.41;7285864;19;151756;-51
2021/11/28 06:25:41;;;;;;;;;;;;;;;18.06;43.86;100311.72;7285658;19;152481;-51
2021/11/28 06:28:28;;;;;;;;;;;;;;;18.13;43.42;100317.75;7283340;19;156292;-51
2021/11/28 06:30:55;;;;;;;;;;;;;;;18.18;43.45;100317.66;7292733;19;152153;-51
2021/11/28 06:33:22;;;;;;;;;;;;;;;18.26;43.36;100318.88;7281423;19;153235;-51
2021/11/28 06:35:48;;;;;;;;;;;;;;;18.30;43.52;100322.75;7285991;19;151993;-51
2021/11/28 06:38:15;;;;;;;;;;;;;;;18.39;43.31;100328.47;7279952;19;152419;-51
2021/11/28 06:40:42;;;;;;;;;;;;;;;18.44;43.36;100325.56;7283863;19;153783;-51
2021/11/28 06:43:12;;;;;;;;;;;;;;;18.50;42.90;100329.91;7285399;19;152542;-52
2021/11/28 06:45:39;;;;;;;;;;;;;;;18.55;43.17;100325.06;7285133;19;152415;-51
2021/11/28 06:48:06;;;;;;;;;;;;;;;18.61;43.18;100323.00;7284078;19;154051;-51
2021/11/28 06:50:32;;;;;;;;;;;;;;;18.64;43.01;100326.00;7285641;19;151835;-51
2021/11/28 06:52:59;;;;;;;;;;;;;;;18.70;43.02;100329.53;7290389;19;153343;-51
2021/11/28 06:55:26;;;;;;;;;;;;;;;18.74;42.74;100333.38;7282869;19;151678;-51
2021/11/28 06:57:53;;;;;;;;;;;;;;;18.77;42.69;100332.75;7284859;19;153521;-52
2021/11/28 07:00:19;;;;;;;;;;;;;;;18.81;42.72;100330.97;7284025;19;153206;-51
2021/11/28 07:02:46;;;;;;;;;;;;;;;18.83;42.58;100328.69;7284225;19;151802;-51
2021/11/28 07:05:13;;;;;;;;;;;;;;;18.86;42.25;100333.66;7282792;19;153405;-51
2021/11/28 07:07:41;;;;;;;;;;;;;;;18.89;42.28;100338.66;7283768;19;153656;-51
2021/11/28 07:10:07;;;;;;;;;;;;;;;18.90;42.05;100336.66;7283129;19;151825;-51
2021/11/28 07:12:34;;;;;;;;;;;;;;;18.91;41.81;100330.75;7283763;19;152562;-51
2021/11/28 07:15:01;;;;;;;;;;;;;;;18.94;41.96;100332.94;7289821;19;152131;-51
2021/11/28 07:17:28;;;;;;;;;;;;;;;18.95;41.55;100337.38;7294203;19;152593;-51
2021/11/28 07:19:54;;;;;;;;;;;;;;;18.96;41.99;100329.81;7292986;19;153601;-51
2021/11/28 07:22:21;;;;;;;;;;;;;;;18.96;41.64;100336.25;7298346;19;152279;-51
2021/11/28 07:24:48;;;;;;;;;;;;;;;18.97;41.73;100325.88;7294775;19;152827;-51
2021/11/28 07:27:15;;;;;;;;;;;;;;;18.98;41.60;100339.59;7297232;19;153999;-51
2021/11/28 07:29:42;;;;;;;;;;;;;;;18.97;41.16;100337.09;7297883;19;151745;-52
2021/11/28 07:32:08;;;;;;;;;;;;;;;18.97;40.86;100337.09;7297781;19;151992;-51
2021/11/28 07:34:35;;;;;;;;;;;;;;;18.95;41.28;100345.78;7296796;19;152968;-52
2021/11/28 07:37:02;;;;;;;;;;;;;;;18.95;40.72;100345.78;7305274;19;151909;-51
2021/11/28 07:39:29;;;;;;;;;;;;;;;18.94;40.88;100355.31;7294128;19;153890;-51
2021/11/28 07:41:56;;;;;;;;;;;;;;;18.92;41.14;100342.78;7298183;19;151648;-51
2021/11/28 07:44:23;;;;;;;;;;;;;;;18.91;41.10;100361.56;7297391;19;152623;-51
2021/11/28 07:46:50;;;;;;;;;;;;;;;18.90;40.85;100368.28;7295527;19;153819;-51
2021/11/28 07:49:16;;;;;;;;;;;;;;;18.90;41.19;100370.25;7297013;19;152025;-51
2021/11/28 07:51:43;;;;;;;;;;;;;;;18.87;41.24;100379.28;7297553;19;153294;-51
2021/11/28 07:54:10;;;;;;;;;;;;;;;18.85;41.14;100378.78;7291655;19;152247;-51
2021/11/28 07:56:38;;;;;;;;;;;;;;;18.82;41.35;100382.19;7297100;19;152166;-51
2021/11/28 07:59:05;;;;;;;;;;;;;;;18.82;41.05;100384.97;7303490;19;153706;-51
2021/11/28 08:01:32;;;;;;;;;;;;;;;18.80;41.27;100387.28;7297836;19;151846;-51
2021/11/28 08:03:59;;;;;;;;;;;;;;;18.78;41.60;100389.53;7297225;19;153622;-52
2021/11/28 08:06:26;;;;;;;;;;;;;;;18.76;41.86;100392.63;7292544;19;153999;-52
2021/11/28 08:08:53;;;;;;;;;;;;;;;18.75;41.46;100388.22;7296785;19;152077;-52
2021/11/28 08:11:19;;;;;;;;;;;;;;;18.74;41.57;100385.72;7296510;19;152016;-51
2021/11/28 08:13:48;;;;;;;;;;;;;;;18.75;41.63;100395.78;7294010;19;153781;-51
2021/11/28 08:16:15;;;;;;;;;;;;;;;18.72;41.27;100390.78;7296509;19;152176;-52
2021/11/28 08:18:45;;;;;;;;;;;;;;;18.70;41.39;100393.06;7296040;19;152210;-53
2021/11/28 08:21:12;;;;;;;;;;;;;;;18.69;41.39;100389.44;7302829;19;151810;-51
2021/11/28 08:23:39;;;;;;;;;;;;;;;18.66;41.26;100392.88;7296866;19;153941;-51
2021/11/28 08:26:06;;;;;;;;;;;;;;;18.65;41.11;100396.78;7292482;19;153278;-51
2021/11/28 08:28:34;;;;;;;;;;;;;;;18.60;41.47;100394.91;7289853;19;152072;-52
2021/11/28 08:31:00;;;;;;;;;;;;;;;18.61;41.13;100398.56;7288629;19;152948;-51
2021/11/28 08:33:32;;;;;;;;;;;;;;;18.58;41.20;100396.34;7286013;19;152600;-51
2021/11/28 08:35:58;;;;;;;;;;;;;;;18.56;41.11;100402.28;7284664;19;152469;-51
2021/11/28 08:38:26;;;;;;;;;;;;;;;18.52;41.09;100408.75;7288731;19;153254;-51
2021/11/28 08:40:53;;;;;;;;;;;;;;;18.48;41.25;100405.75;7293930;19;153838;-51
2021/11/28 08:43:20;;;;;;;;;;;;;;;18.46;40.99;100399.63;7288844;19;151996;-51
2021/11/28 08:45:47;;;;;;;;;;;;;;;18.42;40.97;100401.38;7286103;19;152736;-51
2021/11/28 08:48:14;;;;;;;;;;;;;;;18.40;41.35;100403.66;7288248;19;151911;-52
2021/11/28 08:50:41;;;;;;;;;;;;;;;18.38;40.73;100394.75;7288836;19;152748;-51
2021/11/28 08:53:08;;;;;;;;;;;;;;;18.32;40.68;100403.53;7286244;19;154009;-51
2021/11/28 08:55:36;;;;;;;;;;;;;;;18.28;40.81;100406.13;7286090;19;151850;-51
2021/11/28 08:58:03;;;;;;;;;;;;;;;18.23;40.90;100398.66;7288482;19;153700;-52
2021/11/28 09:00:31;;;;;;;;;;;;;;;18.20;40.95;100401.22;7285933;19;153857;-51
2021/11/28 09:02:58;;;;;;;;;;;;;;;18.18;41.00;100397.91;7295821;19;151877;-51
2021/11/28 09:05:24;;;;;;;;;;;;;;;18.15;40.88;100399.34;7284409;19;153470;-51
2021/11/28 09:07:52;;;;;;;;;;;;;;;18.10;40.96;100396.63;7287774;19;152180;-51
2021/11/28 09:10:19;;;;;;;;;;;;;;;18.08;40.92;100398.91;7287871;19;153390;-51
2021/11/28 09:12:48;;;;;;;;;;;;;;;18.04;41.25;100400.63;7284797;19;154092;-51
2021/11/28 09:15:16;;;;;;;;;;;;;;;18.01;41.28;100403.22;7285804;19;152282;-51
2021/11/28 09:17:50;;;;;;;;;;;;;;;17.99;41.18;100405.50;7288520;19;154102;-51
2021/11/28 09:20:21;;;;;;;;;;;;;;;17.96;41.16;100403.31;7286435;19;154268;-51
2021/11/28 09:25:22;;;;;;;;;;;;;;;17.90;41.36;100410.94;7293602;19;153130;-51
2021/11/28 09:27:50;;;;;;;;;;;;;;;17.91;41.55;100408.97;7287362;19;152018;-51
2021/11/28 09:30:17;;;;;;;;;;;;;;;17.88;41.73;100401.22;7282912;19;153418;-52
2021/11/28 09:32:44;;;;;;;;;;;;;;;17.88;41.98;100404.00;7286545;19;154193;-51
2021/11/28 09:35:12;;;;;;;;;;;;;;;17.84;42.01;100409.38;7286989;19;152082;-51
2021/11/28 09:37:39;;;;;;;;;;;;;;;17.84;41.79;100401.00;7287032;19;153374;-51
2021/11/28 09:40:06;;;;;;;;;;;;;;;17.86;41.62;100409.06;7285200;19;154088;-51
2021/11/28 09:42:36;;;;;;;;;;;;;;;17.69;34.32;100413.22;7287789;19;151845;-52
2021/11/28 09:45:03;;;;;;;;;;;;;;;17.61;37.58;100413.06;7286154;19;152832;-52
2021/11/28 09:47:32;;;;;;;;;;;;;;;17.60;39.04;100417.00;7291545;19;153947;-52
2021/11/28 09:50:01;;;;;;;;;;;;;;;17.55;38.53;100417.88;7284187;19;153013;-52
2021/11/28 09:52:29;;;;;;;;;;;;;;;17.67;38.35;100414.69;7285943;19;154122;-52
2021/11/28 09:54:56;;;;;;;;;;;;;;;17.60;39.25;100428.19;7284206;19;152041;-53
2021/11/28 09:57:23;;;;;;;;;;;;;;;17.51;38.91;100432.75;7286686;19;153373;-52
2021/11/28 09:59:52;;;;;;;;;;;;;;;17.50;39.59;100431.06;7285178;19;153068;-52
2021/11/28 10:02:21;;;;;;;;;;;;;;;17.58;38.91;100427.63;7282814;19;151802;-52
2021/11/28 10:04:48;;;;;;;;;;;;;;;17.57;38.93;100414.78;7285351;19;152730;-53
2021/11/28 10:07:15;;;;;;;;;;;;;;;17.61;38.56;100422.28;7283846;19;155178;-52
2021/11/28 10:09:43;;;;;;;;;;;;;;;17.69;38.62;100415.19;7292969;19;151740;-52
2021/11/28 10:12:21;;;;;;;;;;;;;;;17.74;38.04;100420.69;7284702;19;153775;-52
2021/11/28 10:14:50;;;;;;;;;;;;;;;17.80;38.27;100413.06;7281140;19;152867;-52
2021/11/28 10:17:18;;;;;;;;;;;;;;;17.86;38.23;100403.47;7285006;19;153346;-52
2021/11/28 10:19:45;;;;;;;;;;;;;;;17.90;38.04;100402.56;7283305;19;154817;-52
2021/11/28 10:22:11;;;;;;;;;;;;;;;17.95;38.09;100402.47;7283838;19;152080;-52
2021/11/28 10:24:52;;;;;;;;;;;;;;;18.01;37.94;100392.03;7280368;19;153327;-52
2021/11/28 10:27:19;;;;;;;;;;;;;;;18.09;37.93;100399.72;7282645;19;152423;-52
2021/11/28 10:29:46;;;;;;;;;;;;;;;18.15;37.88;100396.56;7293045;19;152861;-52
2021/11/28 10:32:17;;;;;;;;;;;;;;;18.21;37.93;100400.91;7283834;19;154093;-52
2021/11/28 10:34:47;;;;;;;;;;;;;;;18.27;37.53;100400.81;7279608;19;151742;-52
2021/11/28 10:37:17;;;;;;;;;;;;;;;18.32;37.27;100398.78;7282200;19;153470;-52
2021/11/28 10:39:46;;;;;;;;;;;;;;;18.39;37.35;100399.22;7279616;19;153915;-52
2021/11/28 10:42:21;;;;;;;;;;;;;;;18.45;36.59;100391.53;7281980;19;152139;-52
2021/11/28 10:45:00;;;;;;;;;;;;;;;18.42;35.51;100390.19;7280839;19;153468;-52
2021/11/28 10:47:30;;;;;;;;;;;;;;;18.50;35.31;100397.88;7280452;19;153791;-51
2021/11/28 10:50:06;;;;;;;;;;;;;;;18.57;35.62;100394.72;7281169;19;151938;-52
2021/11/28 10:52:37;;;;;;;;;;;;;;;18.61;35.86;100393.78;7281218;19;152322;-52
2021/11/28 10:55:07;;;;;;;;;;;;;;;18.67;35.68;100392.53;7276294;19;154115;-52
2021/11/28 10:57:34;;;;;;;;;;;;;;;18.74;35.59;100394.09;7274713;19;153311;-52
2021/11/28 11:00:01;;;;;;;;;;;;;;;18.79;35.79;100394.84;7277463;19;153261;-53
2021/11/28 11:02:30;;;;;;;;;;;;;;;18.84;35.70;100389.16;7279935;19;152021;-53
2021/11/28 11:04:59;;;;;;;;;;;;;;;18.89;35.85;100383.44;7279980;19;153001;-52
2021/11/28 11:07:49;;;;;;;;;;;;;;;18.95;35.67;100390.56;7279379;19;155918;-52
2021/11/28 11:13:05;;;;;;;;;;;;;;;19.06;35.47;100385.59;7276942;19;153286;-51
2021/11/28 11:15:48;;;;;;;;;;;;;;;19.12;35.90;100389.97;7281594;19;153331;-53
2021/11/28 11:18:17;;;;;;;;;;;;;;;19.18;35.56;100385.06;7279026;19;152451;-52
2021/11/28 11:20:46;;;;;;;;;;;;;;;19.22;35.86;100383.28;7275695;19;152826;-52
2021/11/28 11:23:38;;;;;;;;;;;;;;;19.27;35.62;100385.97;7278558;19;151969;-52
2021/11/28 11:26:08;;;;;;;;;;;;;;;19.33;35.46;100388.38;7276964;19;152507;-52
2021/11/28 11:28:35;;;;;;;;;;;;;;;19.38;35.30;100387.44;7278935;19;154177;-52
2021/11/28 11:31:04;;;;;;;;;;;;;;;19.42;35.66;100388.47;7279757;19;152386;-52
2021/11/28 11:33:35;;;;;;;;;;;;;;;19.47;35.56;100393.97;7280729;19;153096;-52
2021/11/28 11:36:08;;;;;;;;;;;;;;;19.51;35.49;100387.44;7274210;19;153400;-52
2021/11/28 11:38:40;;;;;;;;;;;;;;;19.57;35.04;100388.16;7286664;19;152224;-52
2021/11/28 11:41:07;;;;;;;;;;;;;;;19.61;35.27;100385.53;7278763;19;154376;-52
2021/11/28 11:43:39;;;;;;;;;;;;;;;19.65;35.04;100381.78;7276156;19;151949;-52
2021/11/28 11:46:14;;;;;;;;;;;;;;;19.69;35.26;100394.03;7275746;19;152645;-52
2021/11/28 11:48:51;;;;;;;;;;;;;;;19.74;35.04;100387.47;7278808;19;152481;-52
2021/11/28 11:51:18;;;;;;;;;;;;;;;19.78;35.23;100388.47;7279196;19;151859;-52
2021/11/28 11:53:46;;;;;;;;;;;;;;;19.81;35.01;100377.47;7277163;19;153128;-52
2021/11/28 11:56:17;;;;;;;;;;;;;;;19.86;35.21;100382.13;7278581;19;153470;-52
2021/11/28 11:59:02;;;;;;;;;;;;;;;19.89;35.18;100376.72;7278541;19;152108;-52
2021/11/28 12:01:29;;;;;;;;;;;;;;;19.93;34.75;100383.34;7283297;19;153643;-52
2021/11/28 12:03:57;;;;;;;;;;;;;;;19.99;34.75;100372.81;7280850;19;152101;-52
2021/11/28 12:06:39;;;;;;;;;;;;;;;20.03;34.88;100385.06;7281244;19;153828;-53
2021/11/28 12:09:21;;;;;;;;;;;;;;;20.09;34.92;100391.34;7283808;19;154547;-53
2021/11/28 12:11:54;;;;;;;;;;;;;;;20.18;34.78;100379.06;7284262;19;152102;-53
2021/11/28 12:14:22;;;;;;;;;;;;;;;20.20;34.96;100384.34;7284808;19;153358;-53
2021/11/28 12:16:48;;;;;;;;;;;;;;;20.22;34.95;100380.06;7279816;19;153840;-53
2021/11/28 12:19:35;;;;;;;;;;;;;;;20.26;35.06;100371.88;7283228;19;152550;-52
2021/11/28 12:22:08;;;;;;;;;;;;;;;20.31;35.07;100377.34;7282371;19;153133;-52
2021/11/28 12:24:42;;;;;;;;;;;;;;;20.35;34.88;100382.00;7288711;19;154082;-53
2021/11/28 12:27:12;;;;;;;;;;;;;;;20.41;35.60;100380.72;7279830;19;152273;-52
2021/11/28 12:29:49;;;;;;;;;;;;;;;20.46;35.59;100370.50;7283640;19;152948;-52
2021/11/28 12:32:24;;;;;;;;;;;;;;;20.52;35.42;100378.47;7278805;19;151966;-52
2021/11/28 12:34:54;;;;;;;;;;;;;;;20.56;35.13;100379.47;7272382;19;152300;-52
2021/11/28 12:37:22;;;;;;;;;;;;;;;20.59;35.42;100373.22;7281891;19;153780;-52
2021/11/28 12:39:49;;;;;;;;;;;;;;;20.62;35.56;100375.41;7284071;19;152075;-52
2021/11/28 12:42:20;;;;;;;;;;;;;;;20.67;35.53;100374.44;7276814;19;156061;-52
2021/11/28 12:44:49;;;;;;;;;;;;;;;20.68;35.53;100370.44;7287591;19;153691;-52
2021/11/28 12:47:16;;;;;;;;;;;;;;;20.71;35.59;100355.78;7282566;19;153288;-52